Time;durP1;ratioP1;P1;durP2;ratioP2;P2;SDS_P1;SDS_P2;PMS_P1;PMS_P2;Temp;Humidity;BMP_temperature;BMP_pressure;BME280_temperature;BME280_humidity;BME280_pressure;Samples;Min_cycle;Max_cycle;Signal;HPM_P1;HPM_P2
2022/11/27 00:02:04;;;;;;;17.63;9.70;;;;;;;1.72;72.87;94829.59;4965778;28;20031;-81
2022/11/27 00:04:29;;;;;;;16.15;8.80;;;;;;;1.74;72.68;94836.19;4965695;28;20027;-81
2022/11/27 00:06:54;;;;;;;21.05;10.43;;;;;;;1.71;72.85;94834.03;4965736;28;20098;-81
2022/11/27 00:09:20;;;;;;;17.83;10.02;;;;;;;1.71;72.58;94841.94;4996646;28;20030;-81
2022/11/27 00:11:45;;;;;;;22.60;10.23;;;;;;;1.68;72.51;94836.34;4965704;28;20202;-81
2022/11/27 00:14:14;;;;;;;18.00;9.10;;;;;;;1.67;72.48;94845.25;4965655;28;20089;-81
2022/11/27 00:16:39;;;;;;;15.80;8.43;;;;;;;1.68;72.05;94839.75;4965300;28;20233;-80
2022/11/27 00:19:05;;;;;;;17.40;9.60;;;;;;;1.68;72.04;94833.72;4965259;28;20030;-81
2022/11/27 00:21:33;;;;;;;16.90;8.30;;;;;;;1.64;72.15;94836.00;4964137;28;20031;-81
2022/11/27 00:24:02;;;;;;;22.70;8.88;;;;;;;1.63;72.07;94844.94;4965284;28;20023;-80
2022/11/27 00:26:28;;;;;;;16.10;7.18;;;;;;;1.63;72.03;94846.72;4964178;28;20034;-80
2022/11/27 00:28:54;;;;;;;15.20;7.50;;;;;;;1.64;71.83;94848.34;4965010;28;20027;-80
2022/11/27 00:31:25;;;;;;;14.95;8.05;;;;;;;1.60;71.54;94848.78;4965083;28;20266;-81
2022/11/27 00:33:53;;;;;;;14.85;8.02;;;;;;;1.58;71.91;94852.69;4965133;28;20118;-80
2022/11/27 00:36:18;;;;;;;18.40;8.13;;;;;;;1.58;71.98;94852.69;4965126;28;20049;-81
2022/11/27 00:38:44;;;;;;;18.33;9.15;;;;;;;1.56;72.19;94852.13;4964969;28;20026;-80
2022/11/27 00:41:30;;;;;;;18.48;8.75;;;;;;;1.54;72.07;94851.56;4965197;28;20067;-80
2022/11/27 00:43:56;;;;;;;17.20;8.80;;;;;;;1.54;71.83;94856.81;4964937;28;20315;-81
2022/11/27 00:46:28;;;;;;;24.85;11.90;;;;;;;1.48;72.49;94853.28;4964735;28;20089;-81
2022/11/27 00:48:54;;;;;;;18.13;9.93;;;;;;;1.47;72.94;94850.91;4964996;28;20209;-81
2022/11/27 00:51:21;;;;;;;19.08;9.55;;;;;;;1.45;72.94;94856.38;4964861;28;20019;-81
2022/11/27 00:53:47;;;;;;;16.80;9.23;;;;;;;1.43;72.75;94860.28;4964698;28;20038;-81
2022/11/27 00:56:22;;;;;;;24.27;11.50;;;;;;;1.42;72.84;94856.03;4964920;28;20054;-81
2022/11/27 00:58:48;;;;;;;27.08;11.85;;;;;;;1.38;73.28;94853.06;4964629;28;20042;-81
2022/11/27 01:01:20;;;;;;;25.17;11.95;;;;;;;1.42;73.67;94848.16;4995355;28;20230;-80
2022/11/27 01:03:46;;;;;;;23.53;12.77;;;;;;;1.43;73.87;94852.41;4964529;28;20023;-80
2022/11/27 01:06:13;;;;;;;24.38;13.52;;;;;;;1.44;74.19;94844.25;4964733;28;20027;-81
2022/11/27 01:08:39;;;;;;;27.60;13.35;;;;;;;1.44;74.06;94856.59;4964830;28;20035;-81
2022/11/27 01:11:05;;;;;;;34.95;14.60;;;;;;;1.42;74.06;94853.41;4964769;28;20026;-82
2022/11/27 01:13:35;;;;;;;29.63;15.68;;;;;;;1.40;74.88;94838.69;4964321;28;20098;-82
2022/11/27 01:16:03;;;;;;;30.75;15.65;;;;;;;1.37;74.51;94833.88;4964542;28;20327;-85
2022/11/27 01:18:29;;;;;;;29.58;15.52;;;;;;;1.35;74.64;94835.94;4964469;28;20045;-85
2022/11/27 01:20:55;;;;;;;31.00;15.43;;;;;;;1.36;74.69;94834.94;4964337;28;20023;-85
2022/11/27 01:23:21;;;;;;;34.92;16.10;;;;;;;1.38;74.64;94832.88;4964389;28;20049;-85
2022/11/27 01:25:47;;;;;;;30.13;15.50;;;;;;;1.39;74.71;94834.44;4964472;28;20308;-85
2022/11/27 01:28:13;;;;;;;30.58;16.33;;;;;;;1.40;74.52;94828.19;4964498;28;20059;-85
2022/11/27 01:30:39;;;;;;;29.85;14.48;;;;;;;1.41;74.44;94834.22;4964635;28;20023;-85
2022/11/27 01:33:04;;;;;;;32.08;15.30;;;;;;;1.39;74.17;94823.94;4964301;28;20027;-85
2022/11/27 01:35:30;;;;;;;29.70;14.18;;;;;;;1.42;74.12;94827.13;4963256;28;20034;-85
2022/11/27 01:37:56;;;;;;;34.53;15.77;;;;;;;1.39;73.96;94821.31;4964361;28;20034;-85
2022/11/27 01:40:21;;;;;;;33.10;16.02;;;;;;;1.41;73.85;94823.72;4964390;28;20059;-86
2022/11/27 01:42:47;;;;;;;38.47;16.20;;;;;;;1.43;73.73;94816.41;4964271;28;20339;-85
2022/11/27 01:45:16;;;;;;;30.25;15.73;;;;;;;1.43;73.86;94810.38;4964250;28;20054;-85
2022/11/27 01:47:48;;;;;;;35.13;17.90;;;;;;;1.44;73.67;94812.72;4964345;28;20034;-86
2022/11/27 01:50:25;;;;;;;29.65;15.30;;;;;;;1.40;74.18;94809.78;4964311;28;20028;-85
2022/11/27 01:52:55;;;;;;;37.28;18.05;;;;;;;1.39;74.35;94808.19;4964153;28;20031;-86
2022/11/27 01:55:34;;;;;;;45.88;20.83;;;;;;;1.42;74.58;94816.63;4964206;28;20039;-86
2022/11/27 01:58:08;;;;;;;38.10;18.13;;;;;;;1.45;74.31;94803.03;4964215;28;20221;-86
2022/11/27 02:00:34;;;;;;;50.00;21.52;;;;;;;1.44;74.25;94807.47;4964116;28;20263;-86
2022/11/27 02:02:59;;;;;;;40.25;19.40;;;;;;;1.51;74.44;94804.75;4964244;28;20019;-86
2022/11/27 02:05:27;;;;;;;30.27;16.45;;;;;;;1.55;74.41;94805.88;4964174;28;20061;-86
2022/11/27 02:07:55;;;;;;;32.47;15.30;;;;;;;1.62;74.18;94814.41;4964007;28;20026;-86
2022/11/27 02:10:30;;;;;;;29.95;15.23;;;;;;;1.65;74.02;94810.50;4964137;28;20046;-86
2022/11/27 02:13:02;;;;;;;28.02;14.73;;;;;;;1.69;74.29;94811.63;4964715;28;20054;-86
2022/11/27 02:15:38;;;;;;;26.88;14.30;;;;;;;1.74;74.17;94815.16;4967448;28;20066;-86
2022/11/27 02:18:26;;;;;;;36.72;15.27;;;;;;;1.82;74.03;94810.59;4967471;28;20106;-86
2022/11/27 02:21:08;;;;;;;33.20;14.63;;;;;;;1.88;73.86;94818.31;4967508;28;20062;-86
2022/11/27 02:23:54;;;;;;;29.60;13.30;;;;;;;1.92;74.21;94816.03;4967627;28;20038;-86
2022/11/27 02:27:03;;;;;;;28.05;13.35;;;;;;;2.04;74.39;94813.34;4967415;28;20227;-86
2022/11/27 02:29:32;;;;;;;27.38;14.32;;;;;;;2.06;74.21;94812.06;4967364;28;20019;-86
2022/11/27 02:32:12;;;;;;;34.05;15.20;;;;;;;2.10;74.21;94807.94;4967304;28;20317;-86
2022/11/27 02:34:57;;;;;;;35.45;17.17;;;;;;;2.11;73.40;94820.03;4967341;28;20015;-86
2022/11/27 02:37:31;;;;;;;38.75;18.17;;;;;;;1.98;73.67;94820.34;4967190;28;20058;-86
2022/11/27 02:40:09;;;;;;;35.63;18.67;;;;;;;1.92;74.13;94816.03;4967343;28;20034;-86
2022/11/27 02:42:41;;;;;;;43.20;18.60;;;;;;;1.88;74.36;94826.22;4967250;28;20027;-85
2022/11/27 02:45:12;;;;;;;41.00;18.50;;;;;;;1.91;74.79;94819.69;4966990;28;20031;-86
2022/11/27 02:47:40;;;;;;;38.55;19.42;;;;;;;1.97;74.94;94813.47;4967464;28;20198;-86
2022/11/27 02:50:10;;;;;;;38.55;18.35;;;;;;;2.00;75.04;94823.53;4967034;28;20070;-86
2022/11/27 02:52:37;;;;;;;37.67;19.00;;;;;;;2.03;75.05;94827.53;4967006;28;20074;-86
2022/11/27 02:55:08;;;;;;;57.10;24.80;;;;;;;2.05;75.13;94826.25;4966853;28;20051;-86
2022/11/27 02:57:35;;;;;;;43.28;20.77;;;;;;;2.10;74.93;94815.84;4966863;28;20031;-86
2022/11/27 03:00:02;;;;;;;46.63;19.80;;;;;;;2.09;74.72;94827.38;4966800;28;20034;-86
2022/11/27 03:02:35;;;;;;;42.70;21.20;;;;;;;2.05;74.83;94821.00;4966594;28;20340;-86
2022/11/27 03:05:04;;;;;;;38.50;19.30;;;;;;;2.03;74.96;94824.91;4966803;28;20062;-87
2022/11/27 03:07:43;;;;;;;47.80;21.75;;;;;;;2.06;75.52;94827.06;4966611;28;20033;-86
2022/11/27 03:10:18;;;;;;;36.58;18.85;;;;;;;2.04;75.29;94829.94;4966738;28;20042;-87
2022/11/27 03:12:45;;;;;;;38.08;18.40;;;;;;;2.08;75.29;94836.31;4966849;28;20035;-85
2022/11/27 03:15:11;;;;;;;41.13;18.25;;;;;;;2.06;75.15;94827.84;4966787;28;20027;-86
2022/11/27 03:17:51;;;;;;;44.05;19.17;;;;;;;2.03;75.26;94833.56;4966756;28;20095;-85
2022/11/27 03:20:25;;;;;;;39.65;18.13;;;;;;;2.01;75.50;94830.38;4997550;28;20023;-85
2022/11/27 03:22:55;;;;;;;40.83;19.50;;;;;;;1.96;75.75;94833.72;4966437;28;20041;-87
2022/11/27 03:25:22;;;;;;;36.85;18.48;;;;;;;1.96;75.46;94843.44;4965710;28;20046;-85
2022/11/27 03:27:54;;;;;;;37.00;18.20;;;;;;;1.92;75.94;94850.22;4966310;28;20027;-84
2022/11/27 03:30:20;;;;;;;42.15;19.75;;;;;;;1.91;76.12;94840.72;4966295;28;20310;-84
2022/11/27 03:32:46;;;;;;;41.88;20.73;;;;;;;1.88;76.18;94833.31;4966390;28;20051;-84
2022/11/27 03:35:15;;;;;;;41.50;19.88;;;;;;;1.89;76.52;94833.06;4966287;28;20031;-84
2022/11/27 03:37:41;;;;;;;37.97;18.92;;;;;;;1.90;76.46;94831.25;4966256;28;20023;-84
2022/11/27 03:40:07;;;;;;;43.90;19.65;;;;;;;1.90;76.25;94834.66;4966168;28;20046;-84
2022/11/27 03:42:46;;;;;;;48.83;20.15;;;;;;;1.83;76.55;94833.19;4966073;28;20034;-84
2022/11/27 03:45:24;;;;;;;50.33;23.42;;;;;;;1.77;76.97;94821.78;4965865;28;20026;-84
2022/11/27 03:47:50;;;;;;;52.08;21.08;;;;;;;1.82;77.13;94826.34;4997107;28;20026;-84
2022/11/27 03:50:25;;;;;;;44.78;20.95;;;;;;;1.81;76.92;94825.53;4965914;28;20023;-84
2022/11/27 03:53:18;;;;;;;47.10;21.98;;;;;;;1.79;77.10;94823.16;4965841;28;20031;-84
2022/11/27 03:56:17;;;;;;;44.65;19.88;;;;;;;1.79;77.05;94827.59;4965911;28;20031;-84
2022/11/27 03:59:06;;;;;;;44.28;21.45;;;;;;;1.74;77.30;94824.88;4965704;28;20266;-84
2022/11/27 04:01:31;;;;;;;39.92;19.92;;;;;;;1.75;77.40;94827.28;4965688;28;20027;-84
2022/11/27 04:03:57;;;;;;;37.30;19.63;;;;;;;1.77;77.57;94822.59;4965670;28;20029;-84
2022/11/27 04:06:22;;;;;;;42.58;20.90;;;;;;;1.78;77.42;94821.56;4965706;28;20030;-84
2022/11/27 04:08:48;;;;;;;46.65;23.13;;;;;;;1.79;77.10;94823.16;4965532;28;20031;-84
2022/11/27 04:11:14;;;;;;;47.38;23.38;;;;;;;1.79;77.03;94817.91;4965546;28;20023;-84
2022/11/27 04:13:39;;;;;;;49.30;23.02;;;;;;;1.72;77.37;94805.94;4965780;28;20102;-84
2022/11/27 04:16:05;;;;;;;50.92;23.58;;;;;;;1.72;77.60;94811.97;4965532;28;20110;-84
2022/11/27 04:18:31;;;;;;;51.28;25.38;;;;;;;1.69;77.48;94812.47;4965487;28;20094;-84
2022/11/27 04:20:56;;;;;;;48.85;24.63;;;;;;;1.72;78.03;94811.19;4965362;28;20031;-85
2022/11/27 04:23:22;;;;;;;54.67;24.25;;;;;;;1.72;77.77;94808.56;4965371;28;20031;-84
2022/11/27 04:25:51;;;;;;;55.53;24.58;;;;;;;1.76;77.67;94814.94;4965432;28;20079;-86
2022/11/27 04:28:17;;;;;;;45.90;23.75;;;;;;;1.75;77.89;94814.16;4965476;28;20034;-86
2022/11/27 04:30:43;;;;;;;51.60;24.55;;;;;;;1.76;77.85;94812.31;4965300;28;20023;-86
2022/11/27 04:33:09;;;;;;;44.58;22.10;;;;;;;1.74;77.87;94804.66;4965225;28;20027;-87
2022/11/27 04:35:34;;;;;;;48.75;22.77;;;;;;;1.83;77.58;94814.78;4965001;28;20277;-84
2022/11/27 04:38:00;;;;;;;51.58;22.38;;;;;;;1.87;77.67;94821.19;4965135;28;20090;-86
2022/11/27 04:40:25;;;;;;;41.28;20.23;;;;;;;1.91;77.18;94832.81;4964982;28;20031;-85
2022/11/27 04:42:51;;;;;;;45.72;21.05;;;;;;;1.87;76.99;94832.50;4965153;28;20030;-85
2022/11/27 04:45:16;;;;;;;53.45;24.23;;;;;;;1.85;77.17;94828.50;4965041;28;20019;-85
2022/11/27 04:47:42;;;;;;;50.00;21.92;;;;;;;1.86;77.17;94832.75;4963852;28;20026;-87
2022/11/27 04:50:08;;;;;;;43.20;21.02;;;;;;;1.87;77.01;94823.81;4965083;28;20023;-85
2022/11/27 04:52:33;;;;;;;49.15;20.70;;;;;;;1.88;76.79;94828.03;4965044;28;20246;-85
2022/11/27 04:54:59;;;;;;;41.00;20.08;;;;;;;1.86;76.74;94836.16;4996101;28;20019;-86
2022/11/27 04:57:24;;;;;;;44.95;22.17;;;;;;;1.83;76.97;94843.72;4964729;28;20019;-85
2022/11/27 04:59:50;;;;;;;44.88;21.77;;;;;;;1.77;76.84;94841.00;4964633;28;20216;-86
2022/11/27 05:02:15;;;;;;;46.05;20.73;;;;;;;1.77;77.11;94833.13;4964724;28;20030;-86
2022/11/27 05:04:41;;;;;;;40.95;20.33;;;;;;;1.78;77.00;94826.03;4964819;28;20318;-86
2022/11/27 05:07:06;;;;;;;44.30;20.33;;;;;;;1.75;76.98;94832.56;4964766;28;20142;-86
2022/11/27 05:09:31;;;;;;;44.35;19.92;;;;;;;1.72;77.19;94826.97;4964670;28;20047;-85
2022/11/27 05:11:57;;;;;;;48.22;21.98;;;;;;;1.68;77.45;94826.63;4964852;28;20027;-85
2022/11/27 05:14:27;;;;;;;45.30;21.65;;;;;;;1.71;77.48;94830.59;4964770;28;20368;-85
2022/11/27 05:16:55;;;;;;;45.90;22.00;;;;;;;1.73;77.28;94831.16;4964444;28;20055;-86
2022/11/27 05:19:22;;;;;;;38.67;20.75;;;;;;;1.76;77.53;94828.88;4964508;28;20394;-85
2022/11/27 05:21:49;;;;;;;44.50;19.85;;;;;;;1.77;77.25;94824.41;4964683;28;20031;-86
2022/11/27 05:24:15;;;;;;;42.88;20.17;;;;;;;1.79;77.46;94831.06;4964487;28;20019;-86
2022/11/27 05:26:41;;;;;;;41.63;20.98;;;;;;;1.86;77.37;94833.53;4964630;28;20023;-86
2022/11/27 05:29:08;;;;;;;49.80;22.48;;;;;;;1.91;77.27;94838.09;4964408;28;20107;-85
2022/11/27 05:31:34;;;;;;;40.25;20.63;;;;;;;1.93;76.60;94838.66;4964505;28;20107;-85
2022/11/27 05:34:00;;;;;;;46.95;22.58;;;;;;;1.93;76.31;94843.91;4964495;28;20023;-86
2022/11/27 05:36:26;;;;;;;47.55;22.02;;;;;;;1.88;76.24;94841.19;4964503;28;20019;-87
2022/11/27 05:38:52;;;;;;;46.22;22.35;;;;;;;1.87;76.63;94842.22;4964496;28;20023;-85
2022/11/27 05:41:17;;;;;;;45.58;21.83;;;;;;;1.85;76.74;94836.38;4964256;28;20372;-84
2022/11/27 05:43:43;;;;;;;49.05;22.23;;;;;;;1.84;76.63;94840.06;4964341;28;20027;-85
2022/11/27 05:46:11;;;;;;;49.67;24.23;;;;;;;1.82;76.63;94857.91;4964422;28;20344;-85
2022/11/27 05:48:37;;;;;;;48.45;23.42;;;;;;;1.80;76.80;94856.28;4965938;28;20019;-85
2022/11/27 05:51:03;;;;;;;54.58;24.65;;;;;;;1.78;76.85;94847.84;4968255;28;20034;-85
2022/11/27 05:53:29;;;;;;;52.08;23.33;;;;;;;1.75;77.24;94850.13;4967996;28;20221;-85
2022/11/27 05:56:00;;;;;;;51.42;25.42;;;;;;;1.74;77.33;94838.81;4968126;28;20210;-88
2022/11/27 05:58:25;;;;;;;51.77;24.57;;;;;;;1.77;77.15;94841.00;4968023;28;20034;-86
2022/11/27 06:00:51;;;;;;;53.10;25.05;;;;;;;1.82;77.26;94850.00;4967769;28;20282;-84
2022/11/27 06:03:16;;;;;;;49.90;24.38;;;;;;;1.83;77.16;94855.00;4967370;28;20321;-85
2022/11/27 06:05:42;;;;;;;57.30;24.90;;;;;;;1.83;76.96;94870.00;4968083;28;20221;-84
2022/11/27 06:08:07;;;;;;;51.80;24.85;;;;;;;1.78;77.27;94871.50;4968063;28;20062;-85
2022/11/27 06:10:33;;;;;;;57.35;23.80;;;;;;;1.76;77.31;94865.66;4967822;28;20026;-84
2022/11/27 06:12:58;;;;;;;51.30;25.40;;;;;;;1.79;76.97;94867.03;4967776;28;20031;-84
2022/11/27 06:15:24;;;;;;;53.60;24.52;;;;;;;1.79;77.09;94862.59;4967519;28;20073;-85
2022/11/27 06:17:49;;;;;;;47.65;23.52;;;;;;;1.76;77.31;94855.16;4967531;28;20027;-85
2022/11/27 06:20:16;;;;;;;51.35;23.08;;;;;;;1.74;77.43;94873.00;4967561;28;20090;-85
2022/11/27 06:22:41;;;;;;;50.13;22.83;;;;;;;1.76;77.38;94867.50;4967866;28;20116;-85
2022/11/27 06:25:07;;;;;;;63.45;25.55;;;;;;;1.76;77.45;94873.56;4998528;28;20058;-85
2022/11/27 06:27:33;;;;;;;55.28;23.83;;;;;;;1.76;77.30;94870.94;4967624;28;20236;-86
2022/11/27 06:29:59;;;;;;;53.08;24.67;;;;;;;1.71;77.65;94867.41;4967365;28;20035;-86
2022/11/27 06:32:25;;;;;;;47.60;23.48;;;;;;;1.72;77.60;94872.44;4967391;28;20313;-86
2022/11/27 06:34:50;;;;;;;45.42;23.55;;;;;;;1.72;77.89;94866.38;4967339;28;20027;-86
2022/11/27 06:37:15;;;;;;;58.35;26.10;;;;;;;1.72;77.79;94861.91;4967202;28;20027;-85
2022/11/27 06:39:41;;;;;;;55.33;25.20;;;;;;;1.76;77.70;94864.88;4967414;28;20021;-86
2022/11/27 06:42:06;;;;;;;53.40;25.95;;;;;;;1.65;77.98;94868.31;4965987;28;20058;-86
2022/11/27 06:44:32;;;;;;;51.80;24.50;;;;;;;1.68;78.16;94868.66;4967216;28;20035;-86
2022/11/27 06:46:57;;;;;;;61.17;26.48;;;;;;;1.77;78.23;94883.06;4966967;28;20085;-86
2022/11/27 06:49:23;;;;;;;57.10;26.98;;;;;;;1.85;77.68;94873.97;4966990;28;20316;-86
2022/11/27 06:51:49;;;;;;;61.35;25.90;;;;;;;1.90;77.39;94874.09;4966968;28;20091;-86
2022/11/27 06:54:14;;;;;;;51.20;25.88;;;;;;;1.99;77.31;94869.25;4998027;28;20026;-88
2022/11/27 06:56:40;;;;;;;56.88;25.77;;;;;;;2.03;76.90;94870.38;4967169;28;20031;-88
2022/11/27 06:59:05;;;;;;;53.40;24.90;;;;;;;2.06;76.59;94871.78;4966396;28;20317;-88
2022/11/27 07:01:31;;;;;;;62.63;26.67;;;;;;;2.07;76.88;94871.50;4966272;28;20070;-88
2022/11/27 07:03:57;;;;;;;54.38;25.27;;;;;;;2.13;76.86;94875.84;4966752;28;20098;-88
2022/11/27 07:06:24;;;;;;;51.92;25.33;;;;;;;2.14;76.18;94868.78;4966886;28;20034;-83
2022/11/27 07:08:50;;;;;;;56.22;26.17;;;;;;;2.17;76.09;94868.28;4966640;28;20051;-83
2022/11/27 07:11:22;;;;;;;61.83;27.83;;;;;;;2.15;76.37;94860.63;4966477;28;20027;-87
2022/11/27 07:13:48;;;;;;;54.08;24.77;;;;;;;2.16;76.04;94859.59;4966737;28;20270;-87
2022/11/27 07:16:15;;;;;;;58.92;27.60;;;;;;;2.19;76.13;94867.00;4966629;28;20071;-88
2022/11/27 07:18:43;;;;;;;56.83;25.92;;;;;;;2.23;75.75;94866.56;4966854;28;20085;-85
2022/11/27 07:21:08;;;;;;;67.25;28.20;;;;;;;2.24;76.31;94862.88;4966795;28;20031;-86
2022/11/27 07:23:34;;;;;;;68.70;30.52;;;;;;;2.33;76.07;94858.84;4966731;28;20078;-89
2022/11/27 07:26:21;;;;;;;62.03;27.88;;;;;;;2.44;75.71;94857.97;4966503;28;20042;-89
2022/11/27 07:28:47;;;;;;;59.75;27.10;;;;;;;2.46;75.18;94850.63;4966383;28;20031;-88
2022/11/27 07:31:16;;;;;;;51.70;25.80;;;;;;;2.50;74.94;94862.28;4966857;28;20348;-88
2022/11/27 07:33:42;;;;;;;62.22;28.10;;;;;;;2.47;75.01;94861.97;4967029;28;20065;-89
2022/11/27 07:36:12;;;;;;;63.58;27.40;;;;;;;2.45;74.99;94851.69;4966771;28;20050;-89
2022/11/27 07:38:38;;;;;;;58.67;26.70;;;;;;;2.45;75.19;94845.63;4997829;28;20031;-85
2022/11/27 07:41:04;;;;;;;61.97;26.75;;;;;;;2.53;75.22;94847.88;4966099;28;20102;-88
2022/11/27 07:43:31;;;;;;;60.78;30.25;;;;;;;2.58;75.06;94854.00;4966134;28;20026;-88
2022/11/27 07:45:56;;;;;;;62.30;30.05;;;;;;;2.49;74.96;94859.91;4966343;28;20034;-87
2022/11/27 07:48:22;;;;;;;62.17;27.90;;;;;;;2.52;75.05;94849.69;4964839;28;20050;-87
2022/11/27 07:50:47;;;;;;;61.38;27.85;;;;;;;2.56;74.90;94855.28;4966124;28;20310;-87
2022/11/27 07:53:13;;;;;;;62.20;30.33;;;;;;;2.53;74.72;94851.28;4966154;28;20026;-86
2022/11/27 07:55:40;;;;;;;66.68;31.10;;;;;;;2.58;75.02;94851.34;4964911;28;20106;-87
2022/11/27 07:58:06;;;;;;;65.82;27.88;;;;;;;2.59;74.63;94847.69;4964544;28;20025;-87
2022/11/27 08:00:32;;;;;;;67.80;30.60;;;;;;;2.63;74.25;94852.50;4965920;28;20483;-86
2022/11/27 08:02:58;;;;;;;60.42;28.50;;;;;;;2.63;74.34;94848.03;4965765;28;20117;-83
2022/11/27 08:05:23;;;;;;;58.67;27.70;;;;;;;2.62;74.49;94851.69;4965701;28;20023;-83
2022/11/27 08:07:49;;;;;;;58.88;28.40;;;;;;;2.63;74.41;94855.94;4965884;28;20046;-90
2022/11/27 08:10:14;;;;;;;58.00;26.52;;;;;;;2.67;74.89;94848.34;4966009;28;20086;-90
2022/11/27 08:12:40;;;;;;;64.93;29.90;;;;;;;2.66;74.90;94849.38;4964108;28;20059;-83
2022/11/27 08:15:06;;;;;;;60.55;30.30;;;;;;;2.73;75.24;94850.81;4965277;28;20063;-81
2022/11/27 08:17:31;;;;;;;64.95;29.52;;;;;;;2.80;75.09;94856.72;4965324;28;20117;-83
2022/11/27 08:19:57;;;;;;;61.08;28.52;;;;;;;2.93;74.79;94854.78;4965324;28;20026;-82
2022/11/27 08:22:22;;;;;;;64.75;29.63;;;;;;;3.06;74.34;94858.97;4965080;28;20038;-82
2022/11/27 08:24:48;;;;;;;61.72;30.42;;;;;;;3.16;74.17;94856.47;4965172;28;20019;-82
2022/11/27 08:27:15;;;;;;;68.50;31.20;;;;;;;3.26;73.66;94855.78;4965285;28;20225;-82
2022/11/27 08:29:40;;;;;;;65.97;31.30;;;;;;;3.38;73.32;94859.94;4965337;28;20027;-84
2022/11/27 08:32:06;;;;;;;58.45;29.63;;;;;;;3.45;72.82;94854.50;4965039;28;20360;-82
2022/11/27 08:34:31;;;;;;;61.90;28.17;;;;;;;3.56;72.44;94855.41;4965155;28;20305;-83
2022/11/27 08:36:57;;;;;;;57.85;28.52;;;;;;;3.66;72.16;94854.75;4965037;28;20045;-82
2022/11/27 08:39:25;;;;;;;61.45;28.67;;;;;;;3.71;71.85;94845.06;4965020;28;20023;-82
2022/11/27 08:41:50;;;;;;;62.10;28.75;;;;;;;3.82;71.22;94851.25;4965039;28;20077;-82
2022/11/27 08:44:16;;;;;;;60.97;31.35;;;;;;;3.88;71.39;94845.00;4965072;28;20023;-82
2022/11/27 08:46:42;;;;;;;61.65;29.75;;;;;;;3.95;70.89;94842.19;4964871;28;20034;-82
2022/11/27 08:49:07;;;;;;;67.45;31.90;;;;;;;4.01;70.43;94843.84;4964952;28;20023;-82
2022/11/27 08:51:33;;;;;;;59.97;31.15;;;;;;;4.04;70.86;94845.97;4964816;28;20392;-80
2022/11/27 08:53:58;;;;;;;60.63;30.25;;;;;;;4.14;70.75;94832.88;4963162;28;20031;-80
2022/11/27 08:56:24;;;;;;;62.88;29.88;;;;;;;4.26;70.89;94840.66;4964728;28;20321;-80
2022/11/27 08:58:50;;;;;;;62.90;30.65;;;;;;;4.31;70.63;94835.41;4964597;28;20050;-80
2022/11/27 09:01:21;;;;;;;62.17;27.63;;;;;;;4.42;70.07;94841.59;4995580;28;20027;-80
2022/11/27 09:03:47;;;;;;;61.30;28.20;;;;;;;4.54;70.08;94823.75;4964559;28;20030;-80
2022/11/27 09:06:20;;;;;;;54.15;28.25;;;;;;;4.69;69.67;94824.94;4964397;28;20274;-80
2022/11/27 09:08:45;;;;;;;56.95;27.73;;;;;;;4.79;68.41;94828.44;4964613;28;20030;-80
2022/11/27 09:11:12;;;;;;;59.35;29.95;;;;;;;4.87;68.53;94827.19;4964712;28;20317;-80
2022/11/27 09:13:39;;;;;;;61.50;29.80;;;;;;;5.02;67.60;94826.50;4964550;28;20094;-80
2022/11/27 09:16:06;;;;;;;70.10;32.67;;;;;;;5.12;67.01;94823.13;4995185;28;20051;-80
2022/11/27 09:18:32;;;;;;;66.35;29.60;;;;;;;5.16;66.85;94818.94;4964483;28;20077;-84
2022/11/27 09:21:08;;;;;;;60.30;28.63;;;;;;;5.15;65.69;94822.59;4964227;28;20031;-83
2022/11/27 09:23:36;;;;;;;64.15;29.95;;;;;;;5.24;65.82;94818.44;4963418;28;20257;-84
2022/11/27 09:26:04;;;;;;;69.22;31.50;;;;;;;5.33;65.79;94814.28;4964996;28;20055;-84
2022/11/27 09:28:31;;;;;;;72.38;32.75;;;;;;;5.45;65.70;94808.75;4964500;28;20082;-81
2022/11/27 09:30:58;;;;;;;62.85;28.50;;;;;;;5.54;64.60;94803.81;4964182;28;20081;-81
2022/11/27 09:33:25;;;;;;;58.03;29.75;;;;;;;5.61;64.88;94804.34;4963255;28;20077;-81
2022/11/27 09:35:50;;;;;;;51.03;25.83;;;;;;;5.61;64.47;94804.34;4963169;28;20019;-81
2022/11/27 09:38:16;;;;;;;68.60;29.50;;;;;;;5.56;64.33;94805.13;4963486;28;20046;-81
2022/11/27 09:40:49;;;;;;;61.30;27.65;;;;;;;5.49;64.57;94809.06;4964426;28;20027;-81
2022/11/27 09:43:16;;;;;;;57.30;26.83;;;;;;;5.59;64.67;94807.25;4995373;28;20031;-81
2022/11/27 09:45:53;;;;;;;58.58;27.45;;;;;;;5.74;63.91;94800.41;4964492;28;20023;-81
2022/11/27 09:48:34;;;;;;;59.65;28.70;;;;;;;5.68;63.92;94796.16;4964096;28;20030;-80
2022/11/27 09:51:05;;;;;;;58.22;28.08;;;;;;;5.57;63.56;94790.03;4964411;28;20043;-80
2022/11/27 09:53:42;;;;;;;58.50;27.50;;;;;;;5.46;64.37;94794.50;4964312;28;20054;-81
2022/11/27 09:56:11;;;;;;;65.30;30.05;;;;;;;5.48;64.66;94789.75;4963145;28;20225;-81
2022/11/27 09:58:39;;;;;;;57.65;29.30;;;;;;;5.51;64.70;94788.44;4964047;28;20314;-81
2022/11/27 10:01:12;;;;;;;54.20;27.27;;;;;;;5.49;64.41;94769.38;4964197;28;20054;-81
2022/11/27 10:03:40;;;;;;;56.00;27.67;;;;;;;5.43;64.46;94777.31;4964424;28;20135;-80
2022/11/27 10:06:27;;;;;;;64.72;28.40;;;;;;;5.41;64.99;94776.78;4964304;28;20033;-80
2022/11/27 10:09:01;;;;;;;54.70;28.00;;;;;;;5.48;65.29;94776.53;4964089;28;20027;-80
2022/11/27 10:11:57;;;;;;;58.42;26.80;;;;;;;5.55;64.14;94768.34;4964038;28;20042;-80
2022/11/27 10:14:42;;;;;;;58.83;26.60;;;;;;;5.48;64.03;94767.81;4948902;28;20283;-81
2022/11/27 10:17:29;;;;;;;60.60;26.88;;;;;;;5.40;64.19;94764.59;4963728;28;20054;-80
2022/11/27 10:20:02;;;;;;;55.00;25.98;;;;;;;5.28;64.50;94757.94;4963947;28;20058;-80
2022/11/27 10:22:50;;;;;;;57.17;25.48;;;;;;;5.23;64.95;94756.03;4964075;28;20033;-81
2022/11/27 10:25:29;;;;;;;50.33;26.38;;;;;;;5.29;64.74;94749.75;4963957;28;20034;-81
2022/11/27 10:28:19;;;;;;;51.88;25.20;;;;;;;5.33;64.58;94753.47;4995125;28;20098;-81
2022/11/27 10:31:00;;;;;;;56.70;24.80;;;;;;;5.31;64.78;94739.72;4994920;28;20056;-81
2022/11/27 10:33:50;;;;;;;51.23;26.30;;;;;;;5.32;64.78;94737.88;4995009;28;20340;-81
2022/11/27 10:36:28;;;;;;;54.70;24.77;;;;;;;5.38;64.72;94728.91;4967314;28;20274;-81
2022/11/27 10:38:57;;;;;;;52.83;23.10;;;;;;;5.51;64.10;94724.97;4967215;28;20026;-81
2022/11/27 10:41:57;;;;;;;40.50;20.80;;;;;;;5.59;63.30;94725.25;4967247;28;20026;-81
2022/11/27 10:44:33;;;;;;;43.45;20.38;;;;;;;5.74;63.81;94718.41;4945134;28;20035;-81
2022/11/27 10:47:02;;;;;;;38.97;18.63;;;;;;;5.90;63.20;94721.91;4967108;28;20223;-81
2022/11/27 10:49:29;;;;;;;39.28;17.98;;;;;;;6.09;61.67;94717.72;4967108;28;20019;-81
2022/11/27 10:51:54;;;;;;;38.10;18.10;;;;;;;6.18;60.43;94718.00;4967131;28;20066;-81
2022/11/27 10:54:33;;;;;;;36.97;17.52;;;;;;;6.23;61.01;94713.50;4967019;28;20306;-81
2022/11/27 10:57:23;;;;;;;29.50;16.35;;;;;;;6.26;60.82;94711.38;4966877;28;20058;-81
2022/11/27 11:00:08;;;;;;;34.78;16.80;;;;;;;6.41;60.56;94706.06;4966998;28;20218;-81
2022/11/27 11:02:37;;;;;;;36.53;18.83;;;;;;;6.48;59.83;94711.91;4997807;28;20027;-81
2022/11/27 11:05:17;;;;;;;40.55;20.13;;;;;;;6.59;59.59;94696.78;4966785;28;20039;-81
2022/11/27 11:08:04;;;;;;;41.97;19.05;;;;;;;6.58;58.78;94706.59;4966553;28;20031;-81
2022/11/27 11:10:36;;;;;;;43.15;20.50;;;;;;;6.59;58.92;94697.59;4966751;28;20229;-81
2022/11/27 11:13:14;;;;;;;36.35;17.55;;;;;;;6.57;59.40;94705.03;4966421;28;20046;-81
2022/11/27 11:15:54;;;;;;;33.83;16.92;;;;;;;6.61;58.99;94700.78;4966582;28;20054;-81
2022/11/27 11:18:22;;;;;;;35.72;17.95;;;;;;;6.78;58.99;94700.47;4966377;28;20046;-81
2022/11/27 11:20:52;;;;;;;35.17;14.07;;;;;;;6.88;58.67;94694.38;4966167;28;20023;-81
2022/11/27 11:23:22;;;;;;;34.67;16.02;;;;;;;7.02;57.93;94690.09;4966576;28;20030;-81
2022/11/27 11:25:54;;;;;;;33.03;15.88;;;;;;;7.12;57.58;94691.09;4966649;28;20027;-81
2022/11/27 11:28:21;;;;;;;28.42;12.95;;;;;;;7.20;57.58;94685.25;4966574;28;20167;-81
2022/11/27 11:30:56;;;;;;;24.60;13.23;;;;;;;7.31;56.73;94683.38;4966382;28;20031;-81
2022/11/27 11:33:22;;;;;;;29.38;14.07;;;;;;;7.38;56.70;94687.28;4966161;28;20019;-81
2022/11/27 11:36:00;;;;;;;28.73;14.68;;;;;;;7.44;56.11;94674.81;4997294;28;20037;-81
2022/11/27 11:38:29;;;;;;;27.50;14.05;;;;;;;7.48;56.51;94672.41;4965994;28;20023;-81